sensor_id;sensor_type;location;lat;lon;timestamp;temperature;humidity
26954;DHT22;14508;50.924;11.600;2023-04-24T00:00:49;11.20;99.90
26954;DHT22;14508;50.924;11.600;2023-04-24T00:03:17;11.20;99.90
26954;DHT22;14508;50.924;11.600;2023-04-24T00:05:47;11.20;99.90
26954;DHT22;14508;50.924;11.600;2023-04-24T00:08:18;11.10;99.90
26954;DHT22;14508;50.924;11.600;2023-04-24T00:10:46;11.10;99.90
26954;DHT22;14508;50.924;11.600;2023-04-24T00:13:14;11.20;99.90
26954;DHT22;14508;50.924;11.600;2023-04-24T00:15:42;11.20;99.90
26954;DHT22;14508;50.924;11.600;2023-04-24T00:18:09;11.20;99.90
26954;DHT22;14508;50.924;11.600;2023-04-24T00:20:37;11.20;99.90
26954;DHT22;14508;50.924;11.600;2023-04-24T00:23:06;11.20;99.90
26954;DHT22;14508;50.924;11.600;2023-04-24T00:25:35;11.20;99.90
26954;DHT22;14508;50.924;11.600;2023-04-24T00:28:03;11.20;99.90
26954;DHT22;14508;50.924;11.600;2023-04-24T00:30:31;11.20;99.90
26954;DHT22;14508;50.924;11.600;2023-04-24T00:32:59;11.30;99.90
26954;DHT22;14508;50.924;11.600;2023-04-24T00:35:27;11.30;99.90
26954;DHT22;14508;50.924;11.600;2023-04-24T00:37:55;11.30;99.90
26954;DHT22;14508;50.924;11.600;2023-04-24T00:40:23;11.30;99.90
26954;DHT22;14508;50.924;11.600;2023-04-24T00:42:52;11.30;99.90
26954;DHT22;14508;50.924;11.600;2023-04-24T00:45:20;11.30;99.90
26954;DHT22;14508;50.924;11.600;2023-04-24T00:47:48;11.30;99.90
26954;DHT22;14508;50.924;11.600;2023-04-24T00:50:17;11.30;99.90
26954;DHT22;14508;50.924;11.600;2023-04-24T00:52:46;11.30;99.90
26954;DHT22;14508;50.924;11.600;2023-04-24T00:55:13;11.30;99.90
26954;DHT22;14508;50.924;11.600;2023-04-24T00:57:42;11.30;99.90
26954;DHT22;14508;50.924;11.600;2023-04-24T01:00:14;11.30;99.90
26954;DHT22;14508;50.924;11.600;2023-04-24T01:02:44;11.30;99.90
26954;DHT22;14508;50.924;11.600;2023-04-24T01:05:13;11.30;99.90
26954;DHT22;14508;50.924;11.600;2023-04-24T01:07:44;11.30;99.90
26954;DHT22;14508;50.924;11.600;2023-04-24T01:10:14;11.30;99.90
26954;DHT22;14508;50.924;11.600;2023-04-24T01:12:44;11.30;99.90
26954;DHT22;14508;50.924;11.600;2023-04-24T01:15:14;11.30;99.90
26954;DHT22;14508;50.924;11.600;2023-04-24T01:17:42;11.30;99.90
26954;DHT22;14508;50.924;11.600;2023-04-24T01:20:10;11.30;99.90
26954;DHT22;14508;50.924;11.600;2023-04-24T01:22:39;11.30;99.90
26954;DHT22;14508;50.924;11.600;2023-04-24T01:25:08;11.40;99.90
26954;DHT22;14508;50.924;11.600;2023-04-24T01:27:36;11.30;99.90
26954;DHT22;14508;50.924;11.600;2023-04-24T01:30:05;11.40;99.90
26954;DHT22;14508;50.924;11.600;2023-04-24T01:32:34;11.40;99.90
26954;DHT22;14508;50.924;11.600;2023-04-24T01:35:04;11.40;99.90
26954;DHT22;14508;50.924;11.600;2023-04-24T01:37:32;11.40;99.90
26954;DHT22;14508;50.924;11.600;2023-04-24T01:40:01;11.40;99.90
26954;DHT22;14508;50.924;11.600;2023-04-24T01:42:30;11.40;99.90
26954;DHT22;14508;50.924;11.600;2023-04-24T01:44:59;11.40;99.90
26954;DHT22;14508;50.924;11.600;2023-04-24T01:47:30;11.40;99.90
26954;DHT22;14508;50.924;11.600;2023-04-24T01:49:58;11.30;99.90
26954;DHT22;14508;50.924;11.600;2023-04-24T01:52:26;11.30;99.90
26954;DHT22;14508;50.924;11.600;2023-04-24T01:54:55;11.30;99.90
26954;DHT22;14508;50.924;11.600;2023-04-24T01:57:25;11.30;99.90
26954;DHT22;14508;50.924;11.600;2023-04-24T01:59:53;11.30;99.90
26954;DHT22;14508;50.924;11.600;2023-04-24T02:02:21;11.30;99.90
26954;DHT22;14508;50.924;11.600;2023-04-24T02:04:50;11.30;99.90
26954;DHT22;14508;50.924;11.600;2023-04-24T02:07:18;11.30;99.90
26954;DHT22;14508;50.924;11.600;2023-04-24T02:09:46;11.30;99.90
26954;DHT22;14508;50.924;11.600;2023-04-24T02:12:15;11.30;99.90
26954;DHT22;14508;50.924;11.600;2023-04-24T02:14:45;11.30;99.90
26954;DHT22;14508;50.924;11.600;2023-04-24T02:17:13;11.30;99.90
26954;DHT22;14508;50.924;11.600;2023-04-24T02:19:42;11.30;99.90
26954;DHT22;14508;50.924;11.600;2023-04-24T02:22:10;11.30;99.90
26954;DHT22;14508;50.924;11.600;2023-04-24T02:24:38;11.40;99.90
26954;DHT22;14508;50.924;11.600;2023-04-24T02:27:06;11.40;99.90
26954;DHT22;14508;50.924;11.600;2023-04-24T02:29:35;11.40;99.90
26954;DHT22;14508;50.924;11.600;2023-04-24T02:32:04;11.40;99.90
26954;DHT22;14508;50.924;11.600;2023-04-24T02:34:32;11.40;99.90
26954;DHT22;14508;50.924;11.600;2023-04-24T02:37:00;11.40;99.90
26954;DHT22;14508;50.924;11.600;2023-04-24T02:39:28;11.40;99.90
26954;DHT22;14508;50.924;11.600;2023-04-24T02:41:56;11.40;99.90
26954;DHT22;14508;50.924;11.600;2023-04-24T02:44:24;11.40;99.90
26954;DHT22;14508;50.924;11.600;2023-04-24T02:46:52;11.40;99.90
26954;DHT22;14508;50.924;11.600;2023-04-24T02:49:23;11.40;99.90
26954;DHT22;14508;50.924;11.600;2023-04-24T02:51:51;11.40;99.90
26954;DHT22;14508;50.924;11.600;2023-04-24T02:54:19;11.30;99.90
26954;DHT22;14508;50.924;11.600;2023-04-24T02:56:47;11.30;99.90
26954;DHT22;14508;50.924;11.600;2023-04-24T02:59:15;11.30;99.90
26954;DHT22;14508;50.924;11.600;2023-04-24T03:01:43;11.20;99.90
26954;DHT22;14508;50.924;11.600;2023-04-24T03:04:11;11.20;99.90
26954;DHT22;14508;50.924;11.600;2023-04-24T03:06:40;11.20;99.90
26954;DHT22;14508;50.924;11.600;2023-04-24T03:09:08;11.20;99.90
26954;DHT22;14508;50.924;11.600;2023-04-24T03:11:36;11.10;99.90
26954;DHT22;14508;50.924;11.600;2023-04-24T03:14:07;11.10;99.90
26954;DHT22;14508;50.924;11.600;2023-04-24T03:16:37;11.10;99.90
26954;DHT22;14508;50.924;11.600;2023-04-24T03:19:06;11.10;99.90
26954;DHT22;14508;50.924;11.600;2023-04-24T03:21:43;11.10;99.90
26954;DHT22;14508;50.924;11.600;2023-04-24T03:24:10;11.10;99.90
26954;DHT22;14508;50.924;11.600;2023-04-24T03:26:39;11.10;99.90
26954;DHT22;14508;50.924;11.600;2023-04-24T03:29:30;11.10;99.90
26954;DHT22;14508;50.924;11.600;2023-04-24T03:31:58;11.20;99.90
26954;DHT22;14508;50.924;11.600;2023-04-24T03:34:26;11.10;99.90
26954;DHT22;14508;50.924;11.600;2023-04-24T03:36:57;11.10;99.90
26954;DHT22;14508;50.924;11.600;2023-04-24T03:39:26;11.10;99.90
26954;DHT22;14508;50.924;11.600;2023-04-24T03:41:55;11.10;99.90
26954;DHT22;14508;50.924;11.600;2023-04-24T03:44:32;11.00;99.90
26954;DHT22;14508;50.924;11.600;2023-04-24T03:47:00;11.00;99.90
26954;DHT22;14508;50.924;11.600;2023-04-24T03:49:28;11.00;99.90
26954;DHT22;14508;50.924;11.600;2023-04-24T03:51:58;11.00;99.90
26954;DHT22;14508;50.924;11.600;2023-04-24T03:54:27;11.00;99.90
26954;DHT22;14508;50.924;11.600;2023-04-24T03:56:55;11.00;99.90
26954;DHT22;14508;50.924;11.600;2023-04-24T03:59:25;10.90;99.90
26954;DHT22;14508;50.924;11.600;2023-04-24T04:02:13;10.90;99.90
26954;DHT22;14508;50.924;11.600;2023-04-24T04:04:41;10.90;99.90
26954;DHT22;14508;50.924;11.600;2023-04-24T04:07:11;10.90;99.90
26954;DHT22;14508;50.924;11.600;2023-04-24T04:09:39;10.90;99.90
26954;DHT22;14508;50.924;11.600;2023-04-24T04:12:07;10.90;99.90
26954;DHT22;14508;50.924;11.600;2023-04-24T04:14:38;10.80;99.90
26954;DHT22;14508;50.924;11.600;2023-04-24T04:17:06;10.80;99.90
26954;DHT22;14508;50.924;11.600;2023-04-24T04:19:34;10.80;99.90
26954;DHT22;14508;50.924;11.600;2023-04-24T04:22:02;10.80;99.90
26954;DHT22;14508;50.924;11.600;2023-04-24T04:24:41;10.80;99.90
26954;DHT22;14508;50.924;11.600;2023-04-24T04:27:09;10.80;99.90
26954;DHT22;14508;50.924;11.600;2023-04-24T04:29:47;10.90;99.90
26954;DHT22;14508;50.924;11.600;2023-04-24T04:32:16;10.90;99.90
26954;DHT22;14508;50.924;11.600;2023-04-24T04:34:44;10.90;99.90
26954;DHT22;14508;50.924;11.600;2023-04-24T04:37:12;10.90;99.90
26954;DHT22;14508;50.924;11.600;2023-04-24T04:40:09;10.90;99.90
26954;DHT22;14508;50.924;11.600;2023-04-24T04:42:48;11.00;99.90
26954;DHT22;14508;50.924;11.600;2023-04-24T04:45:20;11.00;99.90
26954;DHT22;14508;50.924;11.600;2023-04-24T04:48:08;11.10;99.90
26954;DHT22;14508;50.924;11.600;2023-04-24T04:50:39;11.10;99.90
26954;DHT22;14508;50.924;11.600;2023-04-24T04:53:07;11.20;99.90
26954;DHT22;14508;50.924;11.600;2023-04-24T04:55:39;11.20;99.90
26954;DHT22;14508;50.924;11.600;2023-04-24T04:58:18;11.30;99.90
26954;DHT22;14508;50.924;11.600;2023-04-24T05:00:50;11.40;99.90
26954;DHT22;14508;50.924;11.600;2023-04-24T05:03:26;11.50;99.90
26954;DHT22;14508;50.924;11.600;2023-04-24T05:05:59;11.60;99.90
26954;DHT22;14508;50.924;11.600;2023-04-24T05:08:31;11.70;99.90
26954;DHT22;14508;50.924;11.600;2023-04-24T05:11:00;11.80;99.90
26954;DHT22;14508;50.924;11.600;2023-04-24T05:13:30;11.80;99.90
26954;DHT22;14508;50.924;11.600;2023-04-24T05:16:17;11.90;99.90
26954;DHT22;14508;50.924;11.600;2023-04-24T05:18:47;12.00;99.90
26954;DHT22;14508;50.924;11.600;2023-04-24T05:21:18;12.10;99.90
26954;DHT22;14508;50.924;11.600;2023-04-24T05:23:50;12.10;99.90
26954;DHT22;14508;50.924;11.600;2023-04-24T05:26:31;12.20;99.90
26954;DHT22;14508;50.924;11.600;2023-04-24T05:28:59;12.30;99.90
26954;DHT22;14508;50.924;11.600;2023-04-24T05:31:28;12.30;99.90
26954;DHT22;14508;50.924;11.600;2023-04-24T05:33:56;12.30;99.90
26954;DHT22;14508;50.924;11.600;2023-04-24T05:36:25;12.40;99.90
26954;DHT22;14508;50.924;11.600;2023-04-24T05:38:53;12.50;99.90
26954;DHT22;14508;50.924;11.600;2023-04-24T05:41:22;12.50;99.90
26954;DHT22;14508;50.924;11.600;2023-04-24T05:43:51;12.50;99.90
26954;DHT22;14508;50.924;11.600;2023-04-24T05:46:20;12.60;99.90
26954;DHT22;14508;50.924;11.600;2023-04-24T05:48:49;12.60;99.90
26954;DHT22;14508;50.924;11.600;2023-04-24T05:51:17;12.60;99.90
26954;DHT22;14508;50.924;11.600;2023-04-24T05:53:45;12.60;99.90
26954;DHT22;14508;50.924;11.600;2023-04-24T05:56:13;12.70;99.90
26954;DHT22;14508;50.924;11.600;2023-04-24T05:58:42;12.80;99.90
26954;DHT22;14508;50.924;11.600;2023-04-24T06:01:11;12.90;99.90
26954;DHT22;14508;50.924;11.600;2023-04-24T06:03:41;13.00;99.90
26954;DHT22;14508;50.924;11.600;2023-04-24T06:06:09;13.10;99.90
26954;DHT22;14508;50.924;11.600;2023-04-24T06:08:37;13.30;99.90
26954;DHT22;14508;50.924;11.600;2023-04-24T06:11:05;13.40;99.90
26954;DHT22;14508;50.924;11.600;2023-04-24T06:13:34;13.50;99.90
26954;DHT22;14508;50.924;11.600;2023-04-24T06:16:22;13.60;99.90
26954;DHT22;14508;50.924;11.600;2023-04-24T06:18:58;13.60;99.90
26954;DHT22;14508;50.924;11.600;2023-04-24T06:21:26;13.60;99.90
26954;DHT22;14508;50.924;11.600;2023-04-24T06:23:54;13.70;99.90
26954;DHT22;14508;50.924;11.600;2023-04-24T06:26:23;13.70;99.90
26954;DHT22;14508;50.924;11.600;2023-04-24T06:28:51;13.80;99.90
26954;DHT22;14508;50.924;11.600;2023-04-24T06:31:21;13.90;99.90
26954;DHT22;14508;50.924;11.600;2023-04-24T06:33:49;14.00;99.90
26954;DHT22;14508;50.924;11.600;2023-04-24T06:36:17;14.00;99.90
26954;DHT22;14508;50.924;11.600;2023-04-24T06:38:45;14.10;99.90
26954;DHT22;14508;50.924;11.600;2023-04-24T06:41:13;14.20;99.90
26954;DHT22;14508;50.924;11.600;2023-04-24T06:43:41;14.20;99.90
26954;DHT22;14508;50.924;11.600;2023-04-24T06:46:09;14.30;99.90
26954;DHT22;14508;50.924;11.600;2023-04-24T06:48:39;14.40;99.90
26954;DHT22;14508;50.924;11.600;2023-04-24T06:51:07;14.50;99.90
26954;DHT22;14508;50.924;11.600;2023-04-24T06:53:34;14.60;99.90
26954;DHT22;14508;50.924;11.600;2023-04-24T06:56:02;14.70;99.90
26954;DHT22;14508;50.924;11.600;2023-04-24T06:58:31;14.80;99.90
26954;DHT22;14508;50.924;11.600;2023-04-24T07:00:59;14.80;99.90
26954;DHT22;14508;50.924;11.600;2023-04-24T07:03:27;14.80;99.90
26954;DHT22;14508;50.924;11.600;2023-04-24T07:05:56;14.80;99.90
26954;DHT22;14508;50.924;11.600;2023-04-24T07:08:24;14.90;99.90
26954;DHT22;14508;50.924;11.600;2023-04-24T07:10:52;14.90;99.90
26954;DHT22;14508;50.924;11.600;2023-04-24T07:13:20;14.90;99.90
26954;DHT22;14508;50.924;11.600;2023-04-24T07:15:49;14.90;99.90
26954;DHT22;14508;50.924;11.600;2023-04-24T07:18:19;14.90;99.90
26954;DHT22;14508;50.924;11.600;2023-04-24T07:20:48;14.90;99.90
26954;DHT22;14508;50.924;11.600;2023-04-24T07:23:18;14.90;99.90
26954;DHT22;14508;50.924;11.600;2023-04-24T07:25:47;15.00;99.90
26954;DHT22;14508;50.924;11.600;2023-04-24T07:28:15;15.10;99.90
26954;DHT22;14508;50.924;11.600;2023-04-24T07:30:44;15.20;99.90
26954;DHT22;14508;50.924;11.600;2023-04-24T07:33:12;15.30;99.70
26954;DHT22;14508;50.924;11.600;2023-04-24T07:35:40;15.40;98.90
26954;DHT22;14508;50.924;11.600;2023-04-24T07:38:08;15.50;98.50
26954;DHT22;14508;50.924;11.600;2023-04-24T07:40:38;15.70;98.30
26954;DHT22;14508;50.924;11.600;2023-04-24T07:43:06;15.90;97.80
26954;DHT22;14508;50.924;11.600;2023-04-24T07:45:34;16.00;96.80
26954;DHT22;14508;50.924;11.600;2023-04-24T07:48:04;16.10;94.70
26954;DHT22;14508;50.924;11.600;2023-04-24T07:50:32;16.10;93.80
26954;DHT22;14508;50.924;11.600;2023-04-24T07:53:01;16.10;93.20
26954;DHT22;14508;50.924;11.600;2023-04-24T07:55:29;16.10;92.00
26954;DHT22;14508;50.924;11.600;2023-04-24T07:57:58;16.10;92.00
26954;DHT22;14508;50.924;11.600;2023-04-24T08:00:26;16.00;91.80
26954;DHT22;14508;50.924;11.600;2023-04-24T08:02:54;15.90;91.20
26954;DHT22;14508;50.924;11.600;2023-04-24T08:05:22;15.60;90.40
26954;DHT22;14508;50.924;11.600;2023-04-24T08:07:52;15.60;91.50
26954;DHT22;14508;50.924;11.600;2023-04-24T08:10:20;15.70;91.80
26954;DHT22;14508;50.924;11.600;2023-04-24T08:12:48;15.80;91.30
26954;DHT22;14508;50.924;11.600;2023-04-24T08:15:18;16.00;90.60
26954;DHT22;14508;50.924;11.600;2023-04-24T08:17:49;16.10;88.90
26954;DHT22;14508;50.924;11.600;2023-04-24T08:20:36;16.20;87.70
26954;DHT22;14508;50.924;11.600;2023-04-24T08:23:04;16.40;82.90
26954;DHT22;14508;50.924;11.600;2023-04-24T08:25:32;16.60;76.60
26954;DHT22;14508;50.924;11.600;2023-04-24T08:28:02;16.80;75.40
26954;DHT22;14508;50.924;11.600;2023-04-24T08:30:32;16.90;72.30
26954;DHT22;14508;50.924;11.600;2023-04-24T08:33:00;16.90;69.20
26954;DHT22;14508;50.924;11.600;2023-04-24T08:35:28;16.90;67.30
26954;DHT22;14508;50.924;11.600;2023-04-24T08:37:56;16.90;67.40
26954;DHT22;14508;50.924;11.600;2023-04-24T08:40:28;16.80;64.90
26954;DHT22;14508;50.924;11.600;2023-04-24T08:42:56;16.70;64.90
26954;DHT22;14508;50.924;11.600;2023-04-24T08:45:24;16.80;64.70
26954;DHT22;14508;50.924;11.600;2023-04-24T08:47:54;16.90;65.70
26954;DHT22;14508;50.924;11.600;2023-04-24T08:50:22;16.90;63.80
26954;DHT22;14508;50.924;11.600;2023-04-24T08:52:51;16.80;64.00
26954;DHT22;14508;50.924;11.600;2023-04-24T08:55:21;16.80;64.20
26954;DHT22;14508;50.924;11.600;2023-04-24T08:57:51;16.80;63.10
26954;DHT22;14508;50.924;11.600;2023-04-24T09:00:21;16.80;60.00
26954;DHT22;14508;50.924;11.600;2023-04-24T09:02:50;16.70;59.60
26954;DHT22;14508;50.924;11.600;2023-04-24T09:05:21;16.80;59.60
26954;DHT22;14508;50.924;11.600;2023-04-24T09:07:54;17.00;59.50
26954;DHT22;14508;50.924;11.600;2023-04-24T09:10:23;17.10;58.70
26954;DHT22;14508;50.924;11.600;2023-04-24T09:12:52;17.10;56.10
26954;DHT22;14508;50.924;11.600;2023-04-24T09:15:21;17.00;55.90
26954;DHT22;14508;50.924;11.600;2023-04-24T09:17:50;17.00;55.80
26954;DHT22;14508;50.924;11.600;2023-04-24T09:20:19;16.90;56.00
26954;DHT22;14508;50.924;11.600;2023-04-24T09:22:48;17.00;55.30
26954;DHT22;14508;50.924;11.600;2023-04-24T09:25:21;17.10;54.40
26954;DHT22;14508;50.924;11.600;2023-04-24T09:27:50;17.10;53.90
26954;DHT22;14508;50.924;11.600;2023-04-24T09:30:21;17.00;52.60
26954;DHT22;14508;50.924;11.600;2023-04-24T09:33:09;16.70;52.80
26954;DHT22;14508;50.924;11.600;2023-04-24T09:35:42;16.70;52.80
26954;DHT22;14508;50.924;11.600;2023-04-24T09:38:10;16.80;52.10
26954;DHT22;14508;50.924;11.600;2023-04-24T09:40:39;16.90;52.10
26954;DHT22;14508;50.924;11.600;2023-04-24T09:43:10;16.70;51.20
26954;DHT22;14508;50.924;11.600;2023-04-24T09:45:39;16.80;51.60
26954;DHT22;14508;50.924;11.600;2023-04-24T09:48:09;16.80;51.70
26954;DHT22;14508;50.924;11.600;2023-04-24T09:50:38;16.90;51.90
26954;DHT22;14508;50.924;11.600;2023-04-24T09:53:07;16.90;51.70
26954;DHT22;14508;50.924;11.600;2023-04-24T09:55:39;16.90;52.00
26954;DHT22;14508;50.924;11.600;2023-04-24T09:58:08;16.80;52.00
26954;DHT22;14508;50.924;11.600;2023-04-24T10:00:36;16.70;51.70
26954;DHT22;14508;50.924;11.600;2023-04-24T10:03:04;16.80;52.70
26954;DHT22;14508;50.924;11.600;2023-04-24T10:05:34;16.70;52.40
26954;DHT22;14508;50.924;11.600;2023-04-24T10:08:04;16.60;51.50
26954;DHT22;14508;50.924;11.600;2023-04-24T10:10:44;16.60;50.90
26954;DHT22;14508;50.924;11.600;2023-04-24T10:13:14;16.70;51.40
26954;DHT22;14508;50.924;11.600;2023-04-24T10:15:42;16.70;50.80
26954;DHT22;14508;50.924;11.600;2023-04-24T10:18:11;16.70;51.00
26954;DHT22;14508;50.924;11.600;2023-04-24T10:20:40;16.90;51.30
26954;DHT22;14508;50.924;11.600;2023-04-24T10:23:08;17.10;51.20
26954;DHT22;14508;50.924;11.600;2023-04-24T10:25:37;17.30;51.40
26954;DHT22;14508;50.924;11.600;2023-04-24T10:28:05;17.40;50.00
26954;DHT22;14508;50.924;11.600;2023-04-24T10:30:36;17.20;47.70
26954;DHT22;14508;50.924;11.600;2023-04-24T10:33:07;17.10;48.50
26954;DHT22;14508;50.924;11.600;2023-04-24T10:35:38;17.10;49.10
26954;DHT22;14508;50.924;11.600;2023-04-24T10:38:09;17.20;49.00
26954;DHT22;14508;50.924;11.600;2023-04-24T10:40:40;17.20;49.20
26954;DHT22;14508;50.924;11.600;2023-04-24T10:43:09;17.10;49.30
26954;DHT22;14508;50.924;11.600;2023-04-24T10:45:38;17.00;49.20
26954;DHT22;14508;50.924;11.600;2023-04-24T10:48:08;16.90;48.90
26954;DHT22;14508;50.924;11.600;2023-04-24T10:50:44;17.00;49.60
26954;DHT22;14508;50.924;11.600;2023-04-24T10:53:14;17.00;49.60
26954;DHT22;14508;50.924;11.600;2023-04-24T10:55:46;17.20;49.70
26954;DHT22;14508;50.924;11.600;2023-04-24T10:58:15;17.30;48.60
26954;DHT22;14508;50.924;11.600;2023-04-24T11:00:43;17.40;48.70
26954;DHT22;14508;50.924;11.600;2023-04-24T11:03:24;17.50;48.30
26954;DHT22;14508;50.924;11.600;2023-04-24T11:05:56;17.30;47.00
26954;DHT22;14508;50.924;11.600;2023-04-24T11:08:26;17.30;47.90
26954;DHT22;14508;50.924;11.600;2023-04-24T11:10:58;17.40;47.50
26954;DHT22;14508;50.924;11.600;2023-04-24T11:13:27;17.60;46.80
26954;DHT22;14508;50.924;11.600;2023-04-24T11:16:15;17.70;45.80
26954;DHT22;14508;50.924;11.600;2023-04-24T11:18:51;17.90;46.10
26954;DHT22;14508;50.924;11.600;2023-04-24T11:21:22;17.80;45.70
26954;DHT22;14508;50.924;11.600;2023-04-24T11:23:50;17.70;45.70
26954;DHT22;14508;50.924;11.600;2023-04-24T11:26:21;17.50;46.20
26954;DHT22;14508;50.924;11.600;2023-04-24T11:28:51;17.40;46.40
26954;DHT22;14508;50.924;11.600;2023-04-24T11:31:38;17.30;46.60
26954;DHT22;14508;50.924;11.600;2023-04-24T11:34:10;17.40;47.00
26954;DHT22;14508;50.924;11.600;2023-04-24T11:36:40;17.50;46.60
26954;DHT22;14508;50.924;11.600;2023-04-24T11:39:08;17.60;46.30
26954;DHT22;14508;50.924;11.600;2023-04-24T11:41:38;17.80;46.20
26954;DHT22;14508;50.924;11.600;2023-04-24T11:44:09;17.90;46.30
26954;DHT22;14508;50.924;11.600;2023-04-24T11:46:38;17.90;45.40
26954;DHT22;14508;50.924;11.600;2023-04-24T11:49:07;18.00;45.50
26954;DHT22;14508;50.924;11.600;2023-04-24T11:51:35;18.20;44.50
26954;DHT22;14508;50.924;11.600;2023-04-24T11:54:18;18.30;43.30
26954;DHT22;14508;50.924;11.600;2023-04-24T11:56:47;18.40;43.40
26954;DHT22;14508;50.924;11.600;2023-04-24T11:59:16;18.50;43.90
26954;DHT22;14508;50.924;11.600;2023-04-24T12:01:45;18.60;43.50
26954;DHT22;14508;50.924;11.600;2023-04-24T12:04:14;18.50;43.50
26954;DHT22;14508;50.924;11.600;2023-04-24T12:07:00;18.40;43.50
26954;DHT22;14508;50.924;11.600;2023-04-24T12:09:28;18.20;43.40
26954;DHT22;14508;50.924;11.600;2023-04-24T12:11:57;18.00;42.60
26954;DHT22;14508;50.924;11.600;2023-04-24T12:14:36;17.90;43.70
26954;DHT22;14508;50.924;11.600;2023-04-24T12:17:09;18.00;43.40
26954;DHT22;14508;50.924;11.600;2023-04-24T12:19:37;18.00;43.20
26954;DHT22;14508;50.924;11.600;2023-04-24T12:22:05;17.90;43.30
26954;DHT22;14508;50.924;11.600;2023-04-24T12:24:33;18.00;43.50
26954;DHT22;14508;50.924;11.600;2023-04-24T12:27:02;18.20;43.70
26954;DHT22;14508;50.924;11.600;2023-04-24T12:29:30;18.50;43.40
26954;DHT22;14508;50.924;11.600;2023-04-24T12:31:58;18.60;43.20
26954;DHT22;14508;50.924;11.600;2023-04-24T12:34:27;18.70;43.60
26954;DHT22;14508;50.924;11.600;2023-04-24T12:36:55;18.90;43.90
26954;DHT22;14508;50.924;11.600;2023-04-24T12:39:23;18.90;44.10
26954;DHT22;14508;50.924;11.600;2023-04-24T12:41:57;18.70;44.20
26954;DHT22;14508;50.924;11.600;2023-04-24T12:44:30;18.40;44.30
26954;DHT22;14508;50.924;11.600;2023-04-24T12:47:01;18.20;43.80
26954;DHT22;14508;50.924;11.600;2023-04-24T12:49:32;17.90;44.10
26954;DHT22;14508;50.924;11.600;2023-04-24T12:52:00;17.60;45.10
26954;DHT22;14508;50.924;11.600;2023-04-24T12:54:38;17.40;45.40
26954;DHT22;14508;50.924;11.600;2023-04-24T12:57:17;17.40;45.60
26954;DHT22;14508;50.924;11.600;2023-04-24T12:59:47;17.30;45.30
26954;DHT22;14508;50.924;11.600;2023-04-24T13:02:15;17.60;45.60
26954;DHT22;14508;50.924;11.600;2023-04-24T13:04:44;17.90;45.70
26954;DHT22;14508;50.924;11.600;2023-04-24T13:07:14;17.90;45.30
26954;DHT22;14508;50.924;11.600;2023-04-24T13:09:42;17.90;45.50
26954;DHT22;14508;50.924;11.600;2023-04-24T13:12:11;17.80;45.10
26954;DHT22;14508;50.924;11.600;2023-04-24T13:14:39;17.70;45.60
26954;DHT22;14508;50.924;11.600;2023-04-24T13:17:09;17.60;45.60
26954;DHT22;14508;50.924;11.600;2023-04-24T13:19:39;17.50;45.90
26954;DHT22;14508;50.924;11.600;2023-04-24T13:22:09;17.50;46.10
26954;DHT22;14508;50.924;11.600;2023-04-24T13:24:38;17.60;46.20
26954;DHT22;14508;50.924;11.600;2023-04-24T13:27:08;17.50;46.30
26954;DHT22;14508;50.924;11.600;2023-04-24T13:29:37;17.50;47.00
26954;DHT22;14508;50.924;11.600;2023-04-24T13:32:05;17.40;46.70
26954;DHT22;14508;50.924;11.600;2023-04-24T13:34:36;17.40;46.90
26954;DHT22;14508;50.924;11.600;2023-04-24T13:37:05;17.30;47.00
26954;DHT22;14508;50.924;11.600;2023-04-24T13:39:34;17.10;47.20
26954;DHT22;14508;50.924;11.600;2023-04-24T13:42:03;16.80;47.90
26954;DHT22;14508;50.924;11.600;2023-04-24T13:44:31;16.50;48.40
26954;DHT22;14508;50.924;11.600;2023-04-24T13:46:59;16.30;49.20
26954;DHT22;14508;50.924;11.600;2023-04-24T13:49:27;16.10;50.50
26954;DHT22;14508;50.924;11.600;2023-04-24T13:51:57;15.80;51.60
26954;DHT22;14508;50.924;11.600;2023-04-24T13:54:25;15.70;53.80
26954;DHT22;14508;50.924;11.600;2023-04-24T13:56:53;15.80;53.50
26954;DHT22;14508;50.924;11.600;2023-04-24T13:59:21;15.70;53.30
26954;DHT22;14508;50.924;11.600;2023-04-24T14:01:49;15.70;53.40
26954;DHT22;14508;50.924;11.600;2023-04-24T14:04:17;15.80;53.90
26954;DHT22;14508;50.924;11.600;2023-04-24T14:06:45;15.90;53.10
26954;DHT22;14508;50.924;11.600;2023-04-24T14:09:14;16.00;52.30
26954;DHT22;14508;50.924;11.600;2023-04-24T14:11:42;16.10;52.70
26954;DHT22;14508;50.924;11.600;2023-04-24T14:14:10;16.20;51.80
26954;DHT22;14508;50.924;11.600;2023-04-24T14:16:38;16.50;51.30
26954;DHT22;14508;50.924;11.600;2023-04-24T14:19:09;16.60;50.60
26954;DHT22;14508;50.924;11.600;2023-04-24T14:21:37;16.80;50.80
26954;DHT22;14508;50.924;11.600;2023-04-24T14:24:06;16.90;49.30
26954;DHT22;14508;50.924;11.600;2023-04-24T14:26:35;16.90;50.40
26954;DHT22;14508;50.924;11.600;2023-04-24T14:29:04;16.90;49.80
26954;DHT22;14508;50.924;11.600;2023-04-24T14:31:41;16.90;50.00
26954;DHT22;14508;50.924;11.600;2023-04-24T14:34:09;17.00;49.80
26954;DHT22;14508;50.924;11.600;2023-04-24T14:36:37;17.10;50.30
26954;DHT22;14508;50.924;11.600;2023-04-24T14:39:05;17.10;49.90
26954;DHT22;14508;50.924;11.600;2023-04-24T14:41:38;17.20;50.20
26954;DHT22;14508;50.924;11.600;2023-04-24T14:44:09;17.00;50.30
26954;DHT22;14508;50.924;11.600;2023-04-24T14:46:37;16.80;50.70
26954;DHT22;14508;50.924;11.600;2023-04-24T14:49:09;16.80;50.50
26954;DHT22;14508;50.924;11.600;2023-04-24T14:51:38;16.50;50.30
26954;DHT22;14508;50.924;11.600;2023-04-24T14:54:07;16.30;51.10
26954;DHT22;14508;50.924;11.600;2023-04-24T14:56:35;16.10;51.80
26954;DHT22;14508;50.924;11.600;2023-04-24T14:59:06;15.90;51.30
26954;DHT22;14508;50.924;11.600;2023-04-24T15:01:35;15.60;51.70
26954;DHT22;14508;50.924;11.600;2023-04-24T15:04:03;15.60;51.90
26954;DHT22;14508;50.924;11.600;2023-04-24T15:06:32;15.60;51.70
26954;DHT22;14508;50.924;11.600;2023-04-24T15:09:00;15.40;52.10
26954;DHT22;14508;50.924;11.600;2023-04-24T15:11:28;15.40;52.50
26954;DHT22;14508;50.924;11.600;2023-04-24T15:13:59;15.30;52.60
26954;DHT22;14508;50.924;11.600;2023-04-24T15:16:29;15.20;53.30
26954;DHT22;14508;50.924;11.600;2023-04-24T15:18:58;15.20;53.00
26954;DHT22;14508;50.924;11.600;2023-04-24T15:21:26;15.30;53.20
26954;DHT22;14508;50.924;11.600;2023-04-24T15:23:54;15.50;53.20
26954;DHT22;14508;50.924;11.600;2023-04-24T15:26:25;15.60;52.80
26954;DHT22;14508;50.924;11.600;2023-04-24T15:28:53;15.40;52.60
26954;DHT22;14508;50.924;11.600;2023-04-24T15:31:23;15.20;53.00